Waverly, Kentucky
Current Conditions -  °F | °C
As of 8:35 AM on Tuesday 27 Jan 2015 (Local Time) from KEHR Reporting Station
Overcast Overcast  
Wind Chill: 29°   Ceiling: 900
Heat Index: 34°   Visibility: 7mi
Dew Point: 28°   Wind: 6mph
Humidity: 81%   Direction: 340°NNW
Pressure: 30.05"   Gusts: NA
Location:  37.71°N, 87.81°W
Report Text: KEHR 271435Z AUTO 34005KT 7SM OVC009 01/M02 A3005 RMK AO1
Loading
Personal Weather Stations






























Interactive Weather Map New forecast layout! Learn more

10-Day Weather Forecast

Advertisements
Track Severe Weather on mobile